Tiempo atmosférico en la estación meteorológica de Chandrexa De Queixa, Ourense (990 m.)

Fecha
DESCASC
Temp. máxima en grados centígrados (hora)
DESCASC
Temp. mínima en grados centígrados (hora)
DESCASC
Temp. media en grados centígrados
DESCASC
Racha de viento máxima en m/sg (hora)
DESCASC
Velocidad máxima media en intervalos de 10 minutos(hora)
DESCASC
Precipitaciones diarias en mm
DESCASC
Precipitaciones de 00:00 a 06:00 en mm
DESCASC
Precipitaciones de 06:00 a 12:00 en mm
DESCASC
Precipitaciones de 12:00 a 18:00 en mm
DESCASC
Precipitaciones de 18:00 a 24:00 en mm
DESCASC
10-12-2017 10.1 (17:30) 3.5 (23:59) 6.8 30 (20:30) 16.67 (20:00) 85 0.4 4.6 34.8 45.2
09-12-2017 9.5 (15:00) 6.8 (03:00) 8.2 10.83 (13:20) 5 (21:50) 5 0.8 3.2 0.8 0.2
08-12-2017 9.9 (16:00) 7.2 (23:50) 8.5 5.56 (18:40) 2.5 (18:40) 8.4 0.6 1.4 5.6 0.8
07-12-2017 9.3 (13:30) 1.3 (00:00) 5.3 11.11 (19:10) 5.56 (18:50) 3.4 0 0 2 1.4
06-12-2017 10.5 (16:00) -3.6 (-00:0) 3.5 3.89 (16:00) 2.22 (13:50) 0 0 0 0 0
05-12-2017 8.7 (16:10) -4.6 (-00:0) 2 3.06 (13:50) 2.5 (14:00) 0 0 0 0 0
04-12-2017 7.7 (16:10) -4.3 (-00:0) 1.7 3.06 (12:10) 2.22 (12:10) 0 0 0 0 0
03-12-2017 5.9 (15:40) -4.4 (-00:0) 0.8 4.17 (14:50) 1.67 (14:10) 0 0 0 0 0
02-12-2017 3.7 (15:50) -3.6 (-00:0) 0.1 6.67 (14:30) 2.78 (14:30) 0.2 0 0 0.2 0
01-12-2017 2.7 (14:20) -2.3 (-00:0) 0.2 12.78 (10:50) 5 (12:00) 4.6 0.8 3 0.8 0
30-11-2017 3.9 (14:10) -5.1 (-00:0) -0.6 5.83 (14:20) 2.78 (13:30) 0 0 0 0 0
29-11-2017 3.8 (15:20) -2.3 (-00:0) 0.8 6.39 (16:10) 2.78 (16:10) 0 0 0 0 0
28-11-2017 11.6 (15:20) -3.2 (-00:0) 4.2 4.17 (15:20) 1.67 (17:10) 0 0 0 0 0
27-11-2017 10.6 (16:10) -3.9 (-00:0) 3.4 3.61 (14:30) 3.06 (14:10) 0 0 0 0 0
26-11-2017 9.4 (15:50) -1.7 (-00:0) 3.8 4.17 (14:20) 1.67 (14:50) 0 0 0 0 0
25-11-2017 9.2 (15:20) 2 (00:00) 5.6 7.78 (12:30) 3.89 (12:00) 3.8 3.6 0.2 0 0
24-11-2017 11.1 (13:40) 8.2 (00:00) 9.7 11.11 (05:20) 6.11 (05:20) 35.2 8 0.8 6 20.4
23-11-2017 14.9 (14:30) 8.9 (00:00) 11.9 22.22 (02:20) 14.17 (02:10) 4.6 1.4 0 0 3.2
22-11-2017 13.5 (16:00) 9.7 (00:00) 11.6 29.17 (17:50) 20.83 (18:10) 0 0 0 0 0
21-11-2017 17 (14:50) 0.2 (00:00) 8.6 16.94 (23:20) 10 (23:20) 0 0 0 0 0
20-11-2017 18.2 (15:50) 0.5 (00:00) 9.4 6.11 (15:10) 3.33 (14:50) 0 0 0 0 0
19-11-2017 17.2 (16:10) -0.2 (00:00) 8.5 3.61 (18:40) 2.78 (12:20) 0 0 0 0 0
18-11-2017 16 (15:10) 1.5 (00:00) 8.8 3.33 (15:40) 2.22 (11:50) 0 0 0 0 0
17-11-2017 16.7 (15:30) 1.9 (00:00) 9.3 3.61 (16:50) 2.5 (12:10) 0 0 0 0 0
16-11-2017 17.2 (15:20) 1.2 (00:00) 9.2 3.61 (15:30) 1.94 (19:00) 0 0 0 0 0
15-11-2017 16.5 (15:30) 1.5 (00:00) 9 3.33 (13:30) 2.22 (13:10) 0 0 0 0 0

Gráficas

Temp. máximas Temp. mínimas Temp. medias Precipitaciones Rachas de viento máximas Velocidades máximas media en intervalos de 10 minutos

Datos horarios

Fecha y hora oficial Temperatura (ºC) Velocidad del viento (km/h) Dirección del viento Racha (km/h) Dirección de racha Precipitación (mm) Presión (hPa) Tendencia (hPa) Humedad (%)
2017-12-14 23:00:00 4.8 0 Calma 10 Norte 0 -- -- 99
2017-12-14 22:00:00 5.1 4 Noroeste 31 Noroeste 0.2 -- -- 97
2017-12-14 21:00:00 5.4 2 Sur 20 Sudoeste 0 -- -- 99
2017-12-14 20:00:00 5.7 7 Oeste 28 Oeste 0 -- -- 98
2017-12-14 19:00:00 6.7 8 Oeste 37 Oeste 0 -- -- 99
2017-12-14 18:00:00 7.9 11 Oeste 33 Oeste 0.2 -- -- 99
2017-12-14 17:00:00 8.7 10 Oeste 33 Noroeste 0.4 -- -- 100
2017-12-14 16:00:00 9.5 13 Oeste 41 Sudoeste 3.8 -- -- 100
2017-12-14 15:00:00 9.7 13 Oeste 50 Sudoeste 0.8 -- -- 100
2017-12-14 14:00:00 9.7 20 Sudoeste 43 Oeste 1.2 -- -- 100
2017-12-14 13:00:00 9.8 15 Sudoeste 38 Oeste 1 -- -- 100
2017-12-14 12:00:00 9.6 6 Oeste 19 Oeste 1.6 -- -- 100
2017-12-14 11:00:00 9.2 4 Oeste 38 Oeste 1.4 -- -- 100
2017-12-14 10:00:00 9 9 Oeste 35 Oeste 1 -- -- 100
2017-12-14 09:00:00 9.2 14 Oeste 39 Oeste 1.6 -- -- 100
2017-12-14 08:00:00 9.3 14 Oeste 47 Oeste 1.2 -- -- 100
2017-12-14 07:00:00 9.6 19 Sudoeste 46 Sudoeste 2 -- -- 100
2017-12-14 06:00:00 9.3 19 Sudoeste 42 Oeste 0.8 -- -- 100
2017-12-14 05:00:00 9.4 9 Sudoeste 43 Sudoeste 1.2 -- -- 100
2017-12-14 04:00:00 9.4 12 Sudoeste 41 Sudoeste 1 -- -- 100
2017-12-14 03:00:00 9.4 12 Sudoeste 40 Oeste 1.2 -- -- 100
2017-12-14 02:00:00 9.3 11 Sudoeste 32 Oeste 1.2 -- -- 100
2017-12-14 01:00:00 9.2 13 Sudoeste 35 Sudoeste 1 -- -- 100
2017-12-14 00:00:00 9 16 Sudoeste 41 Oeste 0.8 -- -- 100
2017-12-13 23:00:00 8.5 10 Sudoeste 32 Oeste 0.4 -- -- 100
2017-12-13 22:00:00 8.2 14 Sudoeste 32 Sudoeste 0.4 -- -- 100
2017-12-13 21:00:00 8.1 22 Sur 48 Sudoeste 0.2 -- -- 100
2017-12-13 20:00:00 7.9 17 Sudoeste 31 Sudoeste 0.2 -- -- 100
2017-12-13 19:00:00 7.4 12 Sudoeste 28 Sudoeste 0 -- -- 99
2017-12-13 18:00:00 7.5 14 Sudoeste 39 Sudoeste 0 -- -- 98
2017-12-13 17:00:00 8.1 20 Sudoeste 37 Sudoeste 0 -- -- 97
2017-12-13 16:00:00 8.2 4 Oeste 21 Oeste 0 -- -- 92
2017-12-13 15:00:00 8.4 6 Sudoeste 29 Sudoeste 0 -- -- 90
2017-12-13 14:00:00 8.2 14 Sudoeste 26 Sur 0 -- -- 87
2017-12-13 13:00:00 7.9 15 Sur 28 Sur 0 -- -- 91
2017-12-13 12:00:00 8.4 7 Oeste 19 Sudoeste 0 -- -- 87
2017-12-13 11:00:00 6.8 17 Sur 31 Sur 0 -- -- 97
2017-12-13 10:00:00 6.2 10 Sur 27 Sur 0 -- -- 99
2017-12-13 09:00:00 6.2 15 Sur 26 Sur 0 -- -- 100
2017-12-13 08:00:00 5.9 10 Sur 22 Sur 0 -- -- 100
2017-12-13 07:00:00 5.4 13 Sur 23 Sudeste 0 -- -- 100
2017-12-13 06:00:00 4.8 5 Sur 22 Sur 0 -- -- 100
2017-12-13 05:00:00 4.3 9 Sur 18 Sur 0 -- -- 100
2017-12-13 04:00:00 3.7 6 Sur 10 Sur 0.2 -- -- 100
2017-12-13 03:00:00 3.4 5 Sudoeste 9 Oeste 0 -- -- 100
2017-12-13 02:00:00 2.7 2 Sudoeste 6 Sudeste 0.2 -- -- 100
2017-12-13 01:00:00 2.1 2 Sur 6 Sudeste 0 -- -- 100
2017-12-13 00:00:00 1.9 0 Calma 5 Sudoeste 0.4 -- -- 100
2017-12-12 23:00:00 1.7 2 Sudoeste 7 Sur 0 -- -- 100
2017-12-12 22:00:00 1.3 4 Sur 8 Sur 0 -- -- 100
2017-12-12 21:00:00 1.4 2 Sur 6 Sudoeste 0 -- -- 100
2017-12-12 20:00:00 1.9 2 Sur 6 Sur 0.2 -- -- 100
2017-12-12 19:00:00 2.2 2 Sudeste 4 Sur 0 -- -- 100
2017-12-12 18:00:00 2.5 3 Sur 4 Sur 0.2 -- -- 99
2017-12-12 17:00:00 2.6 3 Sur 8 Sur 0.4 -- -- 99
2017-12-12 16:00:00 2.7 0 Calma 6 Noroeste 0.8 -- -- 99
2017-12-12 15:00:00 2.8 0 Calma 7 Oeste 0.8 -- -- 99
2017-12-12 14:00:00 2.6 0 Calma 8 Norte 0.8 -- -- 99
2017-12-12 13:00:00 2.3 0 Calma 4 Nordeste 1.4 -- -- 99
2017-12-12 12:00:00 1.8 0 Calma 4 Noroeste 1.6 -- -- 100
2017-12-12 11:00:00 1.4 0 Calma 6 Norte 0.6 -- -- 100
2017-12-12 10:00:00 1 0 Calma 10 Norte 0.6 -- -- 100
2017-12-12 09:00:00 0.7 3 Norte 12 Norte 0.4 -- -- 100
2017-12-12 08:00:00 0.8 5 Noroeste 12 Noroeste 0.4 -- -- 100
2017-12-12 07:00:00 0.5 4 Norte 12 Noroeste 0.2 -- -- 100
2017-12-12 06:00:00 0.8 5 Noroeste 21 Noroeste 0.2 -- -- 100
2017-12-12 05:00:00 0.5 0 Calma 5 Norte 0 -- -- 100
2017-12-12 04:00:00 0.3 0 Calma 8 Oeste 0 -- -- 100
2017-12-12 03:00:00 0.2 0 Calma 5 Noroeste 0 -- -- 100
2017-12-12 02:00:00 0.2 0 Calma 5 Noroeste 0.2 -- -- 100
2017-12-12 01:00:00 0.2 2 Norte 22 Noroeste 0 -- -- 100
2017-12-12 00:00:00 0.4 6 Norte 26 Noroeste 0.2 -- -- 99
2017-12-11 23:00:00 0.4 6 Norte 18 Norte 0 -- -- 100
2017-12-11 22:00:00 0.2 7 Noroeste 20 Norte 0 -- -- 99
2017-12-11 21:00:00 0.1 10 Norte 27 Norte 0 -- -- 99
2017-12-11 20:00:00 0.1 13 Norte 31 Norte 0 -- -- 99
2017-12-11 19:00:00 0.2 9 Norte 26 Noroeste 0 -- -- 98
2017-12-11 18:00:00 0.4 10 Norte 26 Noroeste 0 -- -- 97
2017-12-11 17:00:00 0.3 4 Norte 28 Nordeste 0 -- -- 98
2017-12-11 16:00:00 0.7 12 Norte 39 Nordeste 1.6 -- -- 97
2017-12-11 15:00:00 0.8 12 Norte 31 Norte 2 -- -- 100
2017-12-11 14:00:00 0.9 11 Norte 30 Norte 2.6 -- -- 100
2017-12-11 13:00:00 0.9 3 Noroeste 9 Noroeste 1.6 -- -- 100
2017-12-11 12:00:00 0.4 0 Calma -- -- 0.2 -- -- 100
2017-12-11 11:00:00 0.4 0 Calma 13 Sudoeste 0.4 -- -- 100
2017-12-11 10:00:00 0.4 6 Sudoeste 21 Sudoeste 0.4 -- -- 100
2017-12-11 09:00:00 0.4 4 Sur 15 Sudoeste 0 -- -- 100
2017-12-11 08:00:00 0.3 0 Calma 10 Noroeste 0 -- -- 100
2017-12-11 07:00:00 0.3 0 Calma 13 Oeste 0 -- -- 100
2017-12-11 06:00:00 0.4 0 Calma 15 Noroeste 0 -- -- 100
2017-12-11 05:00:00 0.4 8 Noroeste 29 Noroeste 1 -- -- 100
2017-12-11 04:00:00 1.6 10 Noroeste 34 Sudoeste 1.4 -- -- 100
2017-12-11 03:00:00 2.3 9 Oeste 50 Sudoeste 2.2 -- -- 99
2017-12-11 02:00:00 3.1 21 Oeste 50 Sudoeste 1.2 -- -- 97
2017-12-11 01:00:00 3.1 17 Sudoeste 48 Oeste 4.6 -- -- 99
2017-12-11 00:00:00 3.5 21 Sudoeste 54 Oeste 7 -- -- 99
2017-12-10 23:00:00 4.4 17 Oeste 63 Oeste 5.6 -- -- 99
2017-12-10 22:00:00 9.1 41 Sudoeste 102 Sudoeste 12.8 -- -- 93
2017-12-10 21:00:00 10.1 51 Sudoeste 108 Sur 7 -- -- 98
2017-12-10 20:00:00 9.4 60 Sudoeste 103 Sudoeste 5.8 -- -- 97
2017-12-10 19:00:00 10 46 Sudoeste 82 Sudoeste 7 -- -- 98
2017-12-10 18:00:00 10 37 Sudoeste 81 Sudoeste 7 -- -- 98
2017-12-10 17:00:00 10 42 Sudoeste 82 Sudoeste 5.6 -- -- 98
2017-12-10 16:00:00 9.8 37 Sudoeste 92 Sudoeste 7.6 -- -- 98
2017-12-10 15:00:00 9.9 45 Sudoeste 82 Sudoeste 5.4 -- -- 98
2017-12-10 14:00:00 9.8 43 Sudoeste 78 Sudoeste 7 -- -- 98
2017-12-10 13:00:00 9.9 43 Sudoeste 82 Sudoeste 2.2 -- -- 98
2017-12-10 12:00:00 9.8 37 Sudoeste 77 Sudoeste 1 -- -- 99
2017-12-10 11:00:00 9.8 33 Sudoeste 59 Sudoeste 0 -- -- 97
2017-12-10 10:00:00 9.3 25 Sudoeste 62 Sur 1.8 -- -- 99
2017-12-10 09:00:00 9.1 28 Sudoeste 57 Sudoeste 1.2 -- -- 98
2017-12-10 08:00:00 9 26 Sudoeste 57 Sudoeste 0.4 -- -- 97
2017-12-10 07:00:00 8.8 26 Sudoeste 59 Sur 0.2 -- -- 97
2017-12-10 06:00:00 8.1 28 Sudoeste 52 Sur 0.2 -- -- 99
2017-12-10 05:00:00 7.9 26 Sur 44 Sudoeste 0 -- -- 93
2017-12-10 04:00:00 7.9 23 Sudoeste 49 Sudoeste 0 -- -- 94
2017-12-10 03:00:00 8.1 21 Sudoeste 45 Sudoeste 0.2 -- -- 91
2017-12-10 02:00:00 7.8 15 Sudoeste 42 Oeste 0 -- -- 95
2017-12-10 01:00:00 7.9 14 Sudoeste 39 Sudoeste 0 -- -- 95
2017-12-10 00:00:00 7.6 12 Sudoeste 33 Sudoeste 0 -- -- 95
2017-12-09 23:00:00 7.6 9 Sudoeste 33 Sudoeste 0 -- -- 91
2017-12-09 22:00:00 7.8 14 Sudoeste 36 Sudoeste 0 -- -- 93
2017-12-09 21:00:00 8.3 14 Oeste 37 Sudoeste 0 -- -- 97
2017-12-09 20:00:00 8.7 12 Oeste 39 Oeste 0 -- -- 98
2017-12-09 19:00:00 8.8 11 Oeste 32 Oeste 0.2 -- -- 99
2017-12-09 18:00:00 8.9 13 Oeste 39 Oeste 0.4 -- -- 99
2017-12-09 17:00:00 9 8 Oeste 30 Sudoeste 0.2 -- -- 99
2017-12-09 16:00:00 9.2 11 Oeste 36 Sudoeste 0 -- -- 98
2017-12-09 15:00:00 9.5 14 Sudoeste 36 Sudoeste 0 -- -- 98
2017-12-09 14:00:00 9.1 9 Oeste 39 Sudoeste 0 -- -- 100
2017-12-09 13:00:00 9 10 Oeste 24 Oeste 0.2 -- -- 100
2017-12-09 12:00:00 8.7 3 Oeste 12 Sudoeste 0.4 -- -- 100
2017-12-09 11:00:00 8.2 5 Oeste 19 Oeste 0.2 -- -- 100
2017-12-09 10:00:00 7.8 3 Oeste 14 Sudoeste 0.2 -- -- 100
2017-12-09 09:00:00 7.5 3 Oeste 12 Sudoeste 0.6 -- -- 100
2017-12-09 08:00:00 7.4 3 Noroeste 9 Noroeste 1 -- -- 100
2017-12-09 07:00:00 7.1 0 Calma 7 Sudoeste 0.8 -- -- 100
2017-12-09 06:00:00 7 0 Calma 9 Oeste 0.6 -- -- 100
2017-12-09 05:00:00 6.9 0 Calma 4 Noroeste 0.2 -- -- 100
2017-12-09 04:00:00 6.8 0 Calma 6 Sudoeste 0 -- -- 100
2017-12-09 03:00:00 6.8 2 Sur 6 Sur 0 -- -- 100
2017-12-09 02:00:00 7 0 Calma 5 Noroeste 0 -- -- 100
2017-12-09 01:00:00 7.1 2 Sudeste 7 Sur 0 -- -- 100
2017-12-09 00:00:00 7.2 0 Calma 7 Noroeste 0.2 -- -- 100
2017-12-08 23:00:00 7.5 0 Calma 13 Noroeste 0 -- -- 100
2017-12-08 22:00:00 8.1 4 Noroeste 10 Noroeste 0.2 -- -- 100
2017-12-08 21:00:00 8.4 3 Norte 9 Noroeste 0 -- -- 100
2017-12-08 20:00:00 8.5 3 Norte 12 Norte 0 -- -- 100
2017-12-08 19:00:00 8.6 7 Norte 20 Noroeste 0.4 -- -- 100
2017-12-08 18:00:00 9.4 5 Noroeste 19 Noroeste 0.8 -- -- 100
2017-12-08 17:00:00 9.6 6 Oeste 17 Noroeste 0.8 -- -- 100
2017-12-08 16:00:00 9.9 4 Oeste 13 Oeste 0.6 -- -- 100
2017-12-08 15:00:00 9.8 4 Oeste 14 Oeste 1 -- -- 99
2017-12-08 14:00:00 9.8 4 Oeste 14 Oeste 1.2 -- -- 100
2017-12-08 13:00:00 9.6 3 Oeste 15 Noroeste 1.2 -- -- 100
2017-12-08 12:00:00 9.2 6 Oeste 17 Noroeste 0 -- -- 100
2017-12-08 11:00:00 8.8 3 Sudoeste 9 Sudoeste 0.6 -- -- 100
2017-12-08 10:00:00 8.4 3 Sudoeste 10 Sudoeste 0.6 -- -- 100
2017-12-08 09:00:00 8.1 2 Sudoeste 8 Sur 0 -- -- 100
2017-12-08 08:00:00 7.9 0 Calma 4 Sudeste 0.2 -- -- 100
2017-12-08 07:00:00 7.7 0 Calma 3 Oeste 0 -- -- 100
2017-12-08 06:00:00 7.8 0 Calma 4 Oeste 0 -- -- 100
2017-12-08 05:00:00 7.9 2 Sur 4 Sur 0 -- -- 100
2017-12-08 04:00:00 8.1 0 Calma 4 Sudeste 0.2 -- -- 100
2017-12-08 03:00:00 8.2 0 Calma 6 Noroeste 0 -- -- 100
2017-12-08 02:00:00 8 2 Este 4 Este 0 -- -- 100
2017-12-08 01:00:00 7.8 2 Sudeste 5 Sur 0.4 -- -- 99
2017-12-08 00:00:00 7.5 0 Calma 9 Sudoeste 0.4 -- -- 98
2017-12-07 23:00:00 7.6 3 Oeste 19 Oeste 0.2 -- -- 97
2017-12-07 22:00:00 7.8 5 Sudoeste 22 Sudoeste 0.2 -- -- 97
2017-12-07 21:00:00 8.1 10 Sudoeste 29 Sudoeste 0.4 -- -- 96
2017-12-07 20:00:00 8 14 Sur 40 Sudoeste 0.2 -- -- 96
2017-12-07 19:00:00 8.1 18 Sur 36 Sudoeste 0 -- -- 96
2017-12-07 18:00:00 8.1 14 Sur 30 Sudoeste 0.4 -- -- 96
2017-12-07 17:00:00 8.2 7 Sudoeste 28 Sudoeste 1.2 -- -- 95
2017-12-07 16:00:00 8.3 6 Sudoeste 12 Sudoeste 0.4 -- -- 92
2017-12-07 15:00:00 8.6 2 Oeste 11 Oeste 0 -- -- 79
2017-12-07 14:00:00 9.1 4 Oeste 14 Oeste 0 -- -- 74
2017-12-07 13:00:00 9 0 Calma 10 Norte 0 -- -- 64
2017-12-07 12:00:00 8.7 6 Nordeste 16 Norte 0 -- -- 59
2017-12-07 11:00:00 5 4 Sudoeste 9 Sudoeste 0 -- -- 61
2017-12-07 10:00:00 4.2 0 Calma 4 Este 0 -- -- 61
2017-12-07 09:00:00 3.7 0 Calma 5 Noroeste 0 -- -- 60
2017-12-07 08:00:00 3.2 2 Sudoeste 8 Sur 0 -- -- 59
2017-12-07 07:00:00 4 2 Sudeste 5 Nordeste 0 -- -- 54
2017-12-07 06:00:00 3.2 2 Norte 4 Nordeste 0 -- -- 54
2017-12-07 05:00:00 2.5 0 Calma 4 Sudoeste 0 -- -- 55
2017-12-07 04:00:00 1.4 2 Sudoeste 7 Sur 0 -- -- 61
2017-12-07 03:00:00 1.7 4 Sur 6 Sur 0 -- -- 59
2017-12-07 02:00:00 3.1 0 Calma 6 Sudoeste 0 -- -- 56
2017-12-07 01:00:00 3.3 0 Calma 8 Oeste 0 -- -- 56
2017-12-07 00:00:00 3.3 4 Sur 8 Sur 0 -- -- 62
2017-12-06 23:00:00 3 4 Sudoeste 10 Sur 0 -- -- 70
2017-12-06 22:00:00 3.3 0 Calma 4 Nordeste 0 -- -- 63
2017-12-06 21:00:00 3.1 0 Calma 4 Sudeste 0 -- -- 68
2017-12-06 20:00:00 3.8 0 Calma 9 Oeste 0 -- -- 59
2017-12-06 19:00:00 4.3 4 Sur 13 Sudeste 0 -- -- 56
2017-12-06 18:00:00 6.2 0 Calma 7 Norte 0 -- -- 52
2017-12-06 17:00:00 7.9 4 Norte 12 Sudoeste 0 -- -- 51
2017-12-06 16:00:00 10.5 5 Oeste 14 Sudoeste 0 -- -- 39
2017-12-06 15:00:00 8.5 6 Norte 10 Norte 0 -- -- 50
2017-12-06 14:00:00 7.9 4 Norte 10 Nordeste 0 -- -- 47
2017-12-06 13:00:00 5.8 3 Norte 10 Norte 0 -- -- 50
2017-12-06 12:00:00 4.4 0 Calma 3 Sudoeste 0 -- -- 58
2017-12-06 11:00:00 0.4 0 Calma 4 Sudoeste 0 -- -- 67
2017-12-06 10:00:00 -1.9 0 Calma 6 Oeste 0 -- -- 76
2017-12-06 09:00:00 -3.4 3 Sudoeste 6 Sudoeste 0 -- -- 81
2017-12-06 08:00:00 -3.4 2 Sur 4 Sudoeste 0 -- -- 79
2017-12-06 07:00:00 -3.4 3 Sudoeste 5 Sudoeste 0 -- -- 85
2017-12-06 06:00:00 -3.3 2 Sur 3 Sur 0 -- -- 83
2017-12-06 05:00:00 -3.1 2 Sur 3 Sur 0 -- -- 86
2017-12-06 04:00:00 -2.9 2 Sudoeste 3 Sudoeste 0 -- -- 85
2017-12-06 03:00:00 -2.7 2 Sur 4 Sudoeste 0 -- -- 89
2017-12-06 02:00:00 -2.5 3 Sudoeste 7 Sudoeste 0 -- -- 88
2017-12-06 01:00:00 -2.2 2 Sur 6 Sudoeste 0 -- -- 89
2017-12-06 00:00:00 -2 3 Sur 7 Sudoeste 0 -- -- 86
2017-12-05 23:00:00 -1.9 2 Sur 4 Sudoeste 0 -- -- 89
2017-12-05 22:00:00 -1.2 3 Sudoeste 6 Oeste 0 -- -- 90
2017-12-05 21:00:00 -0.4 0 Calma 8 Sur 0 -- -- 88
2017-12-05 20:00:00 0.9 3 Sur 7 Sur 0 -- -- 81
2017-12-05 19:00:00 2.9 3 Sur 6 Sur 0 -- -- 77
2017-12-05 18:00:00 5.7 0 Calma 4 Nordeste 0 -- -- 65
2017-12-05 17:00:00 7.7 3 Nordeste 9 Nordeste 0 -- -- 57
2017-12-05 16:00:00 8.5 5 Norte 9 Norte 0 -- -- 56
2017-12-05 15:00:00 7.8 6 Norte 10 Nordeste 0 -- -- 57
2017-12-05 14:00:00 6 9 Norte 11 Norte 0 -- -- 66
2017-12-05 13:00:00 3.8 5 Nordeste 8 Norte 0 -- -- 73
2017-12-05 12:00:00 1.3 4 Nordeste 9 Norte 0 -- -- 83
2017-12-05 11:00:00 -1.3 0 Calma 3 Sur 0 -- -- 95
2017-12-05 10:00:00 -3 0 Calma 2 Sudeste 0 -- -- 100
2017-12-05 09:00:00 -4.6 0 Calma -- -- 0 -- -- 99
2017-12-05 08:00:00 -4.4 0 Calma 2 Sudoeste 0 -- -- 99
2017-12-05 07:00:00 -4 2 Sur 3 Sudoeste 0 -- -- 100
2017-12-05 06:00:00 -4 2 Oeste 5 Sur 0 -- -- 99
2017-12-05 05:00:00 -3.7 2 Sudoeste 5 Sudoeste 0 -- -- 100
2017-12-05 04:00:00 -3.3 2 Sur 4 Sur 0 -- -- 100
2017-12-05 03:00:00 -3.2 0 Calma 5 Oeste 0 -- -- 99
2017-12-05 02:00:00 -3 2 Sur 4 Sur 0 -- -- 98
2017-12-05 01:00:00 -2.5 0 Calma 5 Sur 0 -- -- 99
2017-12-05 00:00:00 -2.2 3 Sur 5 Sur 0 -- -- 98
2017-12-04 23:00:00 -1.9 3 Sur 4 Sudoeste 0 -- -- 96
2017-12-04 22:00:00 -1.3 2 Sudoeste 4 Sudoeste 0 -- -- 95
2017-12-04 21:00:00 -0.5 3 Sudoeste 6 Sur 0 -- -- 93
2017-12-04 20:00:00 0.5 2 Sur 5 Sur 0 -- -- 88
2017-12-04 19:00:00 2.2 4 Sudoeste 9 Sudoeste 0 -- -- 82
2017-12-04 18:00:00 4.5 0 Calma 8 Nordeste 0 -- -- 72
2017-12-04 17:00:00 6.4 3 Norte 9 Nordeste 0 -- -- 65
2017-12-04 16:00:00 7.6 4 Norte 9 Norte 0 -- -- 61
2017-12-04 15:00:00 6.8 5 Norte 9 Nordeste 0 -- -- 65
2017-12-04 14:00:00 5.3 5 Norte 10 Nordeste 0 -- -- 69
2017-12-04 13:00:00 3 7 Norte 11 Norte 0 -- -- 79
2017-12-04 12:00:00 0.7 7 Nordeste 11 Nordeste 0 -- -- 86
2017-12-04 11:00:00 -1.1 2 Norte 4 Norte 0 -- -- 98
2017-12-04 10:00:00 -2.8 0 Calma 3 Sudeste 0 -- -- 100
2017-12-04 09:00:00 -4.2 0 Calma 4 Sudoeste 0 -- -- 100
2017-12-04 08:00:00 -4.3 2 Sudoeste 4 Sudoeste 0 -- -- 100
2017-12-04 07:00:00 -4.2 2 Sur 4 Sur 0 -- -- 100
2017-12-04 06:00:00 -3.9 2 Sur 5 Sudoeste 0 -- -- 99
2017-12-04 05:00:00 -3.7 2 Sudoeste 5 Sur 0 -- -- 99
2017-12-04 04:00:00 -3.5 3 Sudoeste 4 Sudoeste 0 -- -- 99
2017-12-04 03:00:00 -3.2 2 Sudoeste 4 Sudoeste 0 -- -- 99
2017-12-04 02:00:00 -3.1 0 Calma 4 Sudoeste 0 -- -- 99
2017-12-04 01:00:00 -3 2 Sur 3 Sur 0 -- -- 98
2017-12-04 00:00:00 -2.9 3 Sur 5 Sur 0 -- -- 97
2017-12-03 23:00:00 -2.3 2 Sur 4 Sur 0 -- -- 97
2017-12-03 22:00:00 -1.9 3 Sur 4 Sur 0 -- -- 95
2017-12-03 21:00:00 -1.4 3 Sudoeste 5 Sur 0 -- -- 92
2017-12-03 20:00:00 -0.4 3 Sudoeste 6 Sur 0 -- -- 90
2017-12-03 19:00:00 0.8 5 Sur 10 Sur 0 -- -- 84
2017-12-03 18:00:00 3.1 0 Calma 6 Sudeste 0 -- -- 75
2017-12-03 17:00:00 4.8 4 Norte 13 Nordeste 0 -- -- 68
2017-12-03 16:00:00 5.9 6 Norte 13 Norte 0 -- -- 60
2017-12-03 15:00:00 5.4 6 Nordeste 15 Norte 0 -- -- 63
2017-12-03 14:00:00 4.9 4 Nordeste 10 Nordeste 0 -- -- 69
2017-12-03 13:00:00 3.6 3 Nordeste 6 Nordeste 0 -- -- 80
2017-12-03 12:00:00 1.1 2 Sur 4 Sudoeste 0 -- -- 88
2017-12-03 11:00:00 -1.9 2 Sudoeste 5 Sur 0 -- -- 99
2017-12-03 10:00:00 -3 2 Sur 5 Sur 0 -- -- 100
2017-12-03 09:00:00 -4.1 2 Sur 4 Sudoeste 0 -- -- 100
2017-12-03 08:00:00 -4.1 2 Sur 5 Sudoeste 0 -- -- 100
2017-12-03 07:00:00 -4 2 Sur 5 Sudoeste 0 -- -- 100
2017-12-03 06:00:00 -4 2 Oeste 6 Sudoeste 0 -- -- 100
2017-12-03 05:00:00 -3.7 2 Sur 5 Oeste 0 -- -- 100
2017-12-03 04:00:00 -3.4 0 Calma 4 Sudoeste 0 -- -- 100
2017-12-03 03:00:00 -3.3 0 Calma 5 Sudoeste 0 -- -- 99
2017-12-03 02:00:00 -2.9 0 Calma 4 Sudoeste 0 -- -- 99
2017-12-03 01:00:00 -2.5 0 Calma 7 Sur 0 -- -- 99
2017-12-03 00:00:00 -2.2 3 Sur 5 Sudoeste 0 -- -- 95
2017-12-02 23:00:00 -1.4 0 Calma 2 Sudeste 0 -- -- 94
2017-12-02 22:00:00 -0.8 0 Calma 5 Norte 0 -- -- 94
2017-12-02 21:00:00 -0.5 0 Calma 5 Nordeste 0 -- -- 94
2017-12-02 20:00:00 -0.2 0 Calma 9 Nordeste 0 -- -- 95
2017-12-02 19:00:00 0.5 5 Nordeste 10 Nordeste 0 -- -- 95
2017-12-02 18:00:00 1.4 0 Calma 8 Nordeste 0 -- -- 89
2017-12-02 17:00:00 2.6 2 Norte 19 Norte 0 -- -- 85
2017-12-02 16:00:00 3.5 9 Norte 21 Norte 0 -- -- 79
2017-12-02 15:00:00 3.4 5 Norte 24 Norte 0 -- -- 78
2017-12-02 14:00:00 2.8 8 Norte 22 Nordeste 0 -- -- 84
2017-12-02 13:00:00 1.7 6 Nordeste 16 Nordeste 0.2 -- -- 86
2017-12-02 12:00:00 1.1 4 Nordeste 11 Norte 0 -- -- 93
2017-12-02 11:00:00 -1.6 2 Sudeste 4 Sudeste 0 -- -- 100
2017-12-02 10:00:00 -2.5 0 Calma 3 Norte 0 -- -- 100
2017-12-02 09:00:00 -3.4 0 Calma 3 Sudeste 0 -- -- 100
2017-12-02 08:00:00 -3.6 0 Calma 3 Sur 0 -- -- 100
2017-12-02 07:00:00 -3.4 2 Sur 4 Sur 0 -- -- 100
2017-12-02 06:00:00 -3.2 2 Sur 5 Sudoeste 0 -- -- 100
2017-12-02 05:00:00 -2.9 2 Sudeste 8 Oeste 0 -- -- 100
2017-12-02 04:00:00 -2.9 0 Calma 4 Noroeste 0 -- -- 99
2017-12-02 03:00:00 -3 0 Calma 2 Este 0 -- -- 98
2017-12-02 02:00:00 -2.7 0 Calma 4 Oeste 0 -- -- 98
2017-12-02 01:00:00 -2.8 0 Calma 4 Sudoeste 0 -- -- 94
2017-12-02 00:00:00 -2.3 0 Calma 4 Sudeste 0 -- -- 90
2017-12-01 23:00:00 -2.3 0 Calma 8 Sur 0 -- -- 88
2017-12-01 22:00:00 -1.9 0 Calma 8 Sudeste 0 -- -- 86
2017-12-01 21:00:00 -1.5 4 Este 12 Nordeste 0 -- -- 87
2017-12-01 20:00:00 -0.8 3 Este 8 Sudeste 0 -- -- 95
2017-12-01 19:00:00 -0.2 0 Calma 12 Noroeste 0 -- -- 96
2017-12-01 18:00:00 0.3 0 Calma 19 Norte 0 -- -- 92
2017-12-01 17:00:00 1.5 8 Norte 25 Norte 0 -- -- 90
2017-12-01 16:00:00 2.3 7 Norte 26 Norte 0 -- -- 93
2017-12-01 15:00:00 2.1 9 Norte 30 Noroeste 0.2 -- -- 95
2017-12-01 14:00:00 2.4 10 Norte 44 Norte 0.2 -- -- 99
2017-12-01 13:00:00 2.6 14 Norte 45 Norte 0.4 -- -- 100
2017-12-01 12:00:00 2.5 18 Norte 40 Noroeste 0.4 -- -- 100
2017-12-01 11:00:00 2.2 14 Norte 46 Noroeste 0 -- -- 100
2017-12-01 10:00:00 2 12 Norte 31 Norte 0.4 -- -- 100
2017-12-01 09:00:00 1.9 12 Norte 34 Norte 1 -- -- 100
2017-12-01 08:00:00 1.7 4 Norte 19 Norte 0.4 -- -- 100
2017-12-01 07:00:00 1.4 6 Norte 17 Norte 0.8 -- -- 100
2017-12-01 06:00:00 1.1 0 Calma 12 Norte 0.6 -- -- 100
2017-12-01 05:00:00 0.6 3 Norte 13 Noroeste 0.2 -- -- 100
2017-12-01 04:00:00 0.7 3 Norte 7 Noroeste 0 -- -- 99
2017-12-01 03:00:00 0.4 0 Calma 10 Norte 0 -- -- 98
2017-12-01 02:00:00 0.4 3 Norte 11 Norte 0 -- -- 98
2017-12-01 01:00:00 0.4 4 Norte 15 Norte 0 -- -- 97
2017-12-01 00:00:00 0.7 4 Norte 16 Norte 0 -- -- 95
2017-11-30 23:00:00 0.8 5 Norte 19 Norte 0 -- -- 96
2017-11-30 22:00:00 1.1 5 Norte 18 Norte 0 -- -- 96
2017-11-30 21:00:00 1.3 5 Norte 15 Nordeste 0 -- -- 93
2017-11-30 20:00:00 1.4 2 Norte 9 Nordeste 0 -- -- 91
2017-11-30 19:00:00 1.3 0 Calma 4 Nordeste 0 -- -- 90
2017-11-30 18:00:00 1.7 0 Calma 9 Norte 0 -- -- 87
2017-11-30 17:00:00 2.4 4 Nordeste 15 Norte 0 -- -- 82
2017-11-30 16:00:00 3.7 7 Nordeste 19 Nordeste 0 -- -- 72
2017-11-30 15:00:00 3.8 6 Norte 21 Nordeste 0 -- -- 73
2017-11-30 14:00:00 3.8 8 Nordeste 19 Nordeste 0 -- -- 73
2017-11-30 13:00:00 3.2 6 Nordeste 14 Nordeste 0 -- -- 75
2017-11-30 12:00:00 2 3 Nordeste 12 Nordeste 0 -- -- 79
2017-11-30 11:00:00 -1.5 0 Calma 4 Sur 0 -- -- 94
2017-11-30 10:00:00 -3.6 2 Sur 5 Sur 0 -- -- 99
2017-11-30 09:00:00 -5 2 Sur 6 Sur 0 -- -- 99
2017-11-30 08:00:00 -5 3 Sur 5 Sur 0 -- -- 97
2017-11-30 07:00:00 -4.8 3 Sur 5 Sudoeste 0 -- -- 98
2017-11-30 06:00:00 -4.5 2 Sur 5 Sur 0 -- -- 98
2017-11-30 05:00:00 -4.3 2 Sur 4 Sur 0 -- -- 97
2017-11-30 04:00:00 -3.9 2 Sudoeste 5 Sudoeste 0 -- -- 97
2017-11-30 03:00:00 -3.6 2 Sudeste 5 Sudeste 0 -- -- 97
2017-11-30 02:00:00 -3.3 0 Calma 3 Sur 0 -- -- 96
2017-11-30 01:00:00 -2.9 0 Calma 5 Sur 0 -- -- 96
2017-11-30 00:00:00 -2.3 0 Calma 4 Sur 0 -- -- 95
2017-11-29 23:00:00 -1.8 2 Sur 8 Nordeste 0 -- -- 95
2017-11-29 22:00:00 -0.6 2 Nordeste 15 Nordeste 0 -- -- 92
2017-11-29 21:00:00 -0.5 5 Nordeste 14 Nordeste 0 -- -- 95
2017-11-29 20:00:00 0.2 5 Nordeste 18 Nordeste 0 -- -- 92
2017-11-29 19:00:00 0.3 3 Nordeste 10 Nordeste 0 -- -- 92
2017-11-29 18:00:00 1.4 0 Calma 14 Noroeste 0 -- -- 88
2017-11-29 17:00:00 2.7 4 Norte 23 Noroeste 0 -- -- 82
2017-11-29 16:00:00 3.3 8 Norte 21 Norte 0 -- -- 76
2017-11-29 15:00:00 3.6 7 Norte 21 Norte 0 -- -- 76
2017-11-29 14:00:00 3 5 Norte 16 Norte 0 -- -- 83
2017-11-29 13:00:00 2.7 4 Nordeste 18 Norte 0 -- -- 84
2017-11-29 12:00:00 2.4 4 Norte 22 Nordeste 0 -- -- 93
2017-11-29 11:00:00 1.9 6 Norte 22 Noroeste 0 -- -- 96
2017-11-29 10:00:00 1.4 4 Norte 16 Noroeste 0 -- -- 97
2017-11-29 09:00:00 0.9 0 Calma 6 Noroeste 0 -- -- 94
2017-11-29 08:00:00 0.8 0 Calma 4 Nordeste 0 -- -- 95
2017-11-29 07:00:00 1.2 0 Calma 4 Nordeste 0 -- -- 96
2017-11-29 06:00:00 1.6 0 Calma 9 Nordeste 0 -- -- 97
2017-11-29 05:00:00 2 2 Norte 12 Este 0 -- -- 96
2017-11-29 04:00:00 2.5 4 Norte 12 Nordeste 0 -- -- 99
2017-11-29 03:00:00 2.6 0 Calma 9 Nordeste 0 -- -- 100
2017-11-29 02:00:00 2.3 0 Calma 4 Nordeste 0 -- -- 98
2017-11-29 01:00:00 1.6 0 Calma 3 Sur 0 -- -- 95
2017-11-29 00:00:00 0.8 0 Calma 4 Sudeste 0 -- -- 94
2017-11-28 23:00:00 0.2 2 Sur 4 Sudoeste 0 -- -- 94
2017-11-28 22:00:00 -0.5 3 Sudoeste 7 Sur 0 -- -- 93
2017-11-28 21:00:00 0.2 2 Sudeste 4 Sur 0 -- -- 89
2017-11-28 20:00:00 1.1 4 Sur 12 Sur 0 -- -- 84
2017-11-28 19:00:00 2.9 0 Calma 10 Oeste 0 -- -- 81
2017-11-28 18:00:00 5.1 2 Noroeste 14 Norte 0 -- -- 73
2017-11-28 17:00:00 8.4 4 Noroeste 13 Noroeste 0 -- -- 67
2017-11-28 16:00:00 11.2 3 Oeste 15 Noroeste 0 -- -- 58
2017-11-28 15:00:00 11.3 4 Oeste 13 Oeste 0 -- -- 54
2017-11-28 14:00:00 9.8 4 Sudoeste 9 Sudoeste 0 -- -- 52
2017-11-28 13:00:00 8.3 3 Sudoeste 9 Norte 0 -- -- 55
2017-11-28 12:00:00 5.5 2 Sur 5 Sur 0 -- -- 63
2017-11-28 11:00:00 0.9 3 Sudoeste 5 Sudoeste 0 -- -- 73
2017-11-28 10:00:00 -1.1 3 Sur 8 Sudoeste 0 -- -- 80
2017-11-28 09:00:00 -3.1 4 Sudoeste 9 Oeste 0 -- -- 85
2017-11-28 08:00:00 -3.1 4 Sudoeste 8 Sudoeste 0 -- -- 88
2017-11-28 07:00:00 -3 3 Sudoeste 6 Sudoeste 0 -- -- 85
2017-11-28 06:00:00 -2.9 4 Sudoeste 7 Sudoeste 0 -- -- 82
2017-11-28 05:00:00 -2.7 4 Sudoeste 8 Sudoeste 0 -- -- 84
2017-11-28 04:00:00 -2.5 4 Sudoeste 8 Sudoeste 0 -- -- 86
2017-11-28 03:00:00 -2.2 3 Sudoeste 6 Sudoeste 0 -- -- 79
2017-11-28 02:00:00 -2 4 Sudoeste 9 Oeste 0 -- -- 85
2017-11-28 01:00:00 -1.9 4 Sudoeste 6 Sudoeste 0 -- -- 88
2017-11-28 00:00:00 -1.6 2 Oeste 8 Sur 0 -- -- 87
2017-11-27 23:00:00 -1 0 Calma 8 Sur 0 -- -- 81
2017-11-27 22:00:00 -0.6 4 Sur 6 Sudoeste 0 -- -- 76
2017-11-27 21:00:00 0.6 2 Sudoeste 7 Sudoeste 0 -- -- 80
2017-11-27 20:00:00 2.1 2 Sudoeste 6 Sur 0 -- -- 77
2017-11-27 19:00:00 4.2 4 Sur 12 Sur 0 -- -- 70
2017-11-27 18:00:00 7.2 3 Sur 6 Sur 0 -- -- 61
2017-11-27 17:00:00 9.8 0 Calma 9 Norte 0 -- -- 53
2017-11-27 16:00:00 10.2 4 Nordeste 10 Nordeste 0 -- -- 50
2017-11-27 15:00:00 9.6 5 Nordeste 13 Nordeste 0 -- -- 53
2017-11-27 14:00:00 8 10 Norte 13 Norte 0 -- -- 55
2017-11-27 13:00:00 6.5 3 Nordeste 6 Nordeste 0 -- -- 55
2017-11-27 12:00:00 3.3 5 Nordeste 12 Nordeste 0 -- -- 63
2017-11-27 11:00:00 0.6 0 Calma 6 Oeste 0 -- -- 65
2017-11-27 10:00:00 -1.5 4 Sudoeste 7 Sudoeste 0 -- -- 78
2017-11-27 09:00:00 -3.4 2 Sur 4 Noroeste 0 -- -- 81
2017-11-27 08:00:00 -3.8 0 Calma 5 Sudoeste 0 -- -- 91
2017-11-27 07:00:00 -3.4 2 Sur 4 Sur 0 -- -- 97
2017-11-27 06:00:00 -3 0 Calma 5 Nordeste 0 -- -- 85
2017-11-27 05:00:00 -2.9 2 Sudoeste 4 Sur 0 -- -- 92
2017-11-27 04:00:00 -2.5 0 Calma 5 Nordeste 0 -- -- 84
2017-11-27 03:00:00 -2.6 2 Sur 4 Sur 0 -- -- 85
2017-11-27 02:00:00 -1.9 0 Calma 6 Nordeste 0 -- -- 87
2017-11-27 01:00:00 -1.9 0 Calma 5 Sudoeste 0 -- -- 97
2017-11-27 00:00:00 -1.5 2 Sur 6 Nordeste 0 -- -- 91
2017-11-26 23:00:00 -1.3 2 Sur 4 Sur 0 -- -- 94
2017-11-26 22:00:00 -0.5 3 Sur 5 Sur 0 -- -- 94
2017-11-26 21:00:00 0.4 3 Sur 6 Sur 0 -- -- 90
2017-11-26 20:00:00 1.6 0 Calma 8 Sudoeste 0 -- -- 86
2017-11-26 19:00:00 3.7 4 Sur 6 Sur 0 -- -- 82
2017-11-26 18:00:00 6.1 2 Sudeste 8 Nordeste 0 -- -- 75
2017-11-26 17:00:00 8.1 2 Norte 10 Norte 0 -- -- 71
2017-11-26 16:00:00 9.3 5 Norte 9 Norte 0 -- -- 66
2017-11-26 15:00:00 8.6 5 Norte 15 Sudoeste 0 -- -- 74
2017-11-26 14:00:00 7.2 3 Oeste 11 Sudoeste 0 -- -- 76
2017-11-26 13:00:00 4.6 5 Nordeste 8 Norte 0 -- -- 98
2017-11-26 12:00:00 2.5 0 Calma 4 Sur 0 -- -- 100
2017-11-26 11:00:00 0.2 0 Calma 4 Sur 0 -- -- 100
2017-11-26 10:00:00 -1.1 0 Calma 4 Norte 0 -- -- 100
2017-11-26 09:00:00 -1.7 0 Calma -- -- 0 -- -- 100
2017-11-26 08:00:00 -1.2 0 Calma -- -- 0 -- -- 100
2017-11-26 07:00:00 -0.9 0 Calma -- -- 0 -- -- 100
2017-11-26 06:00:00 -0.7 0 Calma -- -- 0 -- -- 100
2017-11-26 05:00:00 -0.2 0 Calma 5 Sur 0 -- -- 100
2017-11-26 04:00:00 0.3 3 Sudeste 7 Sur 0 -- -- 100
2017-11-26 03:00:00 1 2 Sur 8 Sudoeste 0 -- -- 100
2017-11-26 02:00:00 1.6 2 Sur 7 Sur 0 -- -- 100
2017-11-26 01:00:00 1.9 3 Sur 7 Sur 0 -- -- 100
2017-11-26 00:00:00 2.3 0 Calma 3 Sur 0 -- -- 100
2017-11-25 23:00:00 2.1 3 Sur 6 Sur 0 -- -- 100
2017-11-25 22:00:00 2.3 4 Sur 7 Sur 0 -- -- 97
2017-11-25 21:00:00 3.1 0 Calma 3 Nordeste 0 -- -- 96
2017-11-25 20:00:00 4.4 0 Calma 2 Sudoeste 0 -- -- 94
2017-11-25 19:00:00 5.8 0 Calma 10 Norte 0 -- -- 88
2017-11-25 18:00:00 6.6 0 Calma 8 Oeste 0 -- -- 87
2017-11-25 17:00:00 7.7 2 Norte 13 Norte 0 -- -- 84
2017-11-25 16:00:00 9.2 6 Norte 16 Noroeste 0 -- -- 74
2017-11-25 15:00:00 8.9 6 Norte 21 Norte 0 -- -- 75
2017-11-25 14:00:00 7.9 8 Norte 22 Norte 0 -- -- 81
2017-11-25 13:00:00 7.3 10 Norte 28 Norte 0 -- -- 85
2017-11-25 12:00:00 7 14 Nordeste 27 Nordeste 0 -- -- 86
2017-11-25 11:00:00 5.9 0 Calma 5 Norte 0 -- -- 100
2017-11-25 10:00:00 5.3 0 Calma 7 Nordeste 0 -- -- 100
2017-11-25 09:00:00 5 3 Nordeste 9 Norte 0 -- -- 100
2017-11-25 08:00:00 5.3 3 Norte 12 Norte 0 -- -- 100
2017-11-25 07:00:00 5.7 3 Nordeste 11 Norte 0.2 -- -- 100
2017-11-25 06:00:00 6.4 3 Norte 9 Nordeste 0 -- -- 100
2017-11-25 05:00:00 6.6 0 Calma 8 Norte 0 -- -- 100
2017-11-25 04:00:00 6.9 0 Calma 6 Sudeste 0.2 -- -- 100
2017-11-25 03:00:00 7.2 2 Sur 7 Sudeste 1.6 -- -- 100
2017-11-25 02:00:00 7.4 2 Este 17 Nordeste 0.4 -- -- 99
2017-11-25 01:00:00 7.8 8 Norte 21 Noroeste 1.4 -- -- 99
2017-11-25 00:00:00 8.2 0 Calma 9 Norte 3 -- -- 99
2017-11-24 23:00:00 8.4 8 Norte 22 Nordeste 1.4 -- -- 98
2017-11-24 22:00:00 9.5 4 Sudoeste 12 Oeste 5.4 -- -- 98
2017-11-24 21:00:00 9.9 3 Sudoeste 28 Sudoeste 4.6 -- -- 99
2017-11-24 20:00:00 9.8 2 Sur 6 Sur 2.2 -- -- 99
2017-11-24 19:00:00 9.8 4 Sur 18 Sur 3.8 -- -- 98
2017-11-24 18:00:00 10 6 Sur 19 Sudoeste 0.6 -- -- 96
2017-11-24 17:00:00 10.1 5 Sudoeste 28 Sudoeste 0 -- -- 95
2017-11-24 16:00:00 10.2 14 Sudoeste 31 Sudoeste 2.2 -- -- 96
2017-11-24 15:00:00 10.6 5 Sudoeste 19 Sudoeste 1.6 -- -- 96
2017-11-24 14:00:00 10.8 13 Sudoeste 23 Oeste 0.4 -- -- 96
2017-11-24 13:00:00 10.8 3 Sudoeste 9 Sudoeste 1.2 -- -- 98
2017-11-24 12:00:00 10.6 4 Oeste 9 Sudoeste 0 -- -- 97
2017-11-24 11:00:00 10.5 4 Sudoeste 18 Oeste 0.2 -- -- 97
2017-11-24 10:00:00 10.4 9 Sur 21 Sur 0.2 -- -- 98
2017-11-24 09:00:00 10.2 11 Sur 35 Sur 0 -- -- 96
2017-11-24 08:00:00 9.9 12 Sudoeste 21 Sur 0 -- -- 98
2017-11-24 07:00:00 9.9 4 Oeste 19 Sur 0.4 -- -- 98
2017-11-24 06:00:00 9.8 12 Sur 40 Sur 1.6 -- -- 98
2017-11-24 05:00:00 9.3 15 Sur 34 Sudoeste 0.6 -- -- 98
2017-11-24 04:00:00 9.1 16 Sudoeste 33 Sudoeste 1 -- -- 97
2017-11-24 03:00:00 8.6 8 Sudoeste 34 Sur 4 -- -- 96
2017-11-24 02:00:00 8.7 14 Sudeste 33 Sudeste 0 -- -- 92
2017-11-24 01:00:00 9.1 13 Sur 30 Sur 0.8 -- -- 92
2017-11-24 00:00:00 9.3 9 Sur 29 Sur 2.6 -- -- 93
2017-11-23 23:00:00 10.4 6 Sur 45 Sur 0.6 -- -- 88
2017-11-23 22:00:00 11 19 Sur 42 Sur 0 -- -- 79
2017-11-23 21:00:00 11.5 20 Sur 41 Sur 0 -- -- 77
2017-11-23 20:00:00 11.4 23 Sur 42 Sur 0 -- -- 74
2017-11-23 19:00:00 11.2 13 Sur 44 Sur 0 -- -- 74
2017-11-23 18:00:00 11.5 30 Sur 54 Sur 0 -- -- 76
2017-11-23 17:00:00 11.7 30 Sur 53 Sur 0 -- -- 83
2017-11-23 16:00:00 12.4 24 Sur 42 Sudoeste 0 -- -- 88
2017-11-23 15:00:00 13.8 26 Sur 49 Sur 0 -- -- 80
2017-11-23 14:00:00 14.1 27 Sur 57 Sur 0 -- -- 73
2017-11-23 13:00:00 13 26 Sur 55 Sur 0 -- -- 73
2017-11-23 12:00:00 12.6 27 Sur 49 Sur 0 -- -- 72
2017-11-23 11:00:00 10.9 21 Sur 37 Sudoeste 0 -- -- 81
2017-11-23 10:00:00 10.2 18 Sudoeste 37 Sudoeste 0 -- -- 84
2017-11-23 09:00:00 9.1 11 Sur 29 Sudoeste 0 -- -- 88
2017-11-23 08:00:00 9.3 15 Sur 32 Sudoeste 0 -- -- 89
2017-11-23 07:00:00 10.1 18 Sudoeste 38 Sudoeste 0 -- -- 87
2017-11-23 06:00:00 10.1 22 Sur 56 Sur 0.2 -- -- 93
2017-11-23 05:00:00 9.7 30 Sur 66 Sur 0.4 -- -- 95
2017-11-23 04:00:00 9.8 41 Sur 69 Sur 0.2 -- -- 92
2017-11-23 03:00:00 9 39 Sur 80 Sur 0.2 -- -- 90
2017-11-23 02:00:00 9.9 45 Sur 72 Sur 0.4 -- -- 84
2017-11-23 01:00:00 10.1 40 Sur 73 Sur 0 -- -- 74
2017-11-23 00:00:00 10.4 39 Sur 73 Sur 0 -- -- 70
2017-11-22 23:00:00 10.3 46 Sur 82 Sudoeste 0 -- -- 72
2017-11-22 22:00:00 10.8 45 Sur 80 Sur 0 -- -- 65
2017-11-22 21:00:00 10.9 41 Sur 72 Sudoeste 0 -- -- 56
2017-11-22 20:00:00 11.5 46 Sur 94 Sur 0 -- -- 51
2017-11-22 19:00:00 11.8 56 Sur 102 Sur 0 -- -- 51
2017-11-22 18:00:00 12.5 72 Sur 105 Sur 0 -- -- 50
2017-11-22 17:00:00 13 62 Sur 94 Sur 0 -- -- 49
2017-11-22 16:00:00 13.5 51 Sur 85 Sur 0 -- -- 49
2017-11-22 15:00:00 12.7 39 Sur 80 Sur 0 -- -- 51
2017-11-22 14:00:00 12.5 46 Sur 84 Sur 0 -- -- 51
2017-11-22 13:00:00 13.4 50 Sur 90 Sur 0 -- -- 48
2017-11-22 12:00:00 12.7 50 Sur 95 Sudoeste 0 -- -- 49
2017-11-22 11:00:00 12.8 38 Sur 68 Sur 0 -- -- 48
2017-11-22 10:00:00 10.9 40 Sur 61 Sur 0 -- -- 50
2017-11-22 09:00:00 9.8 41 Sur 58 Sur 0 -- -- 50
2017-11-22 08:00:00 10.4 32 Sur 49 Sur 0 -- -- 47
2017-11-22 07:00:00 10.3 22 Sur 45 Sur 0 -- -- 48
2017-11-22 06:00:00 11 27 Sur 49 Sur 0 -- -- 46
2017-11-22 05:00:00 11 24 Sur 43 Sur 0 -- -- 45
2017-11-22 04:00:00 11.4 31 Sur 48 Sur 0 -- -- 43
2017-11-22 03:00:00 11.3 30 Sur 50 Sur 0 -- -- 45
2017-11-22 02:00:00 11 32 Sur 54 Sur 0 -- -- 46
2017-11-22 01:00:00 11.5 34 Sur 55 Sur 0 -- -- 43
2017-11-22 00:00:00 11.4 35 Sur 61 Sur 0 -- -- 43
2017-11-21 23:00:00 11.2 21 Sur 40 Sur 0 -- -- 44
2017-11-21 22:00:00 11 19 Sur 38 Sur 0 -- -- 44
2017-11-21 21:00:00 10.6 19 Sur 36 Sur 0 -- -- 45
2017-11-21 20:00:00 9.8 4 Sur 14 Sur 0 -- -- 44
2017-11-21 19:00:00 10.8 12 Sur 26 Sur 0 -- -- 40
2017-11-21 18:00:00 12.5 9 Sudeste 34 Sur 0 -- -- 31
2017-11-21 17:00:00 14.7 12 Sur 26 Sur 0 -- -- 30
2017-11-21 16:00:00 16.2 13 Sur 27 Sur 0 -- -- 32
2017-11-21 15:00:00 16.8 14 Sudeste 26 Sudeste 0 -- -- 31
2017-11-21 14:00:00 16.1 12 Sur 26 Sur 0 -- -- 32
2017-11-21 13:00:00 14.3 5 Sudoeste 10 Sudoeste 0 -- -- 39
2017-11-21 12:00:00 10 4 Norte 8 Norte 0 -- -- 51
2017-11-21 11:00:00 7 2 Sur 6 Oeste 0 -- -- 65
2017-11-21 10:00:00 3.1 2 Oeste 8 Oeste 0 -- -- 75
2017-11-21 09:00:00 1.5 4 Sudoeste 6 Sudoeste 0 -- -- 79
2017-11-21 08:00:00 1.5 3 Oeste 5 Oeste 0 -- -- 78
2017-11-21 07:00:00 1.6 3 Sudoeste 6 Oeste 0 -- -- 74
2017-11-21 06:00:00 0.8 4 Sudoeste 8 Oeste 0 -- -- 78
2017-11-21 05:00:00 0.2 4 Sudoeste 6 Sudoeste 0 -- -- 79
2017-11-21 04:00:00 0.5 4 Sudoeste 6 Oeste 0 -- -- 79
2017-11-21 03:00:00 1.2 3 Sudoeste 9 Sudoeste 0 -- -- 76
2017-11-21 02:00:00 1.9 3 Sudoeste 9 Sudoeste 0 -- -- 68
2017-11-21 01:00:00 1.6 5 Sudoeste 6 Sudoeste 0 -- -- 68
2017-11-21 00:00:00 2.3 3 Sudoeste 7 Sudoeste 0 -- -- 62
2017-11-20 23:00:00 2.8 3 Sudoeste 7 Sur 0 -- -- 58
2017-11-20 22:00:00 3.8 4 Sur 6 Sudoeste 0 -- -- 54
2017-11-20 21:00:00 5.1 4 Sudoeste 8 Oeste 0 -- -- 52
2017-11-20 20:00:00 7.2 3 Sur 12 Sur 0 -- -- 45
2017-11-20 19:00:00 9 8 Sur 14 Sur 0 -- -- 43
2017-11-20 18:00:00 12.3 2 Oeste 8 Oeste 0 -- -- 36
2017-11-20 17:00:00 15.1 4 Noroeste 18 Oeste 0 -- -- 31
2017-11-20 16:00:00 18.2 8 Sudoeste 22 Oeste 0 -- -- 25
2017-11-20 15:00:00 17.7 10 Sudoeste 19 Sudoeste 0 -- -- 25
2017-11-20 14:00:00 15.5 6 Sudoeste 16 Oeste 0 -- -- 30
2017-11-20 13:00:00 13.2 4 Norte 10 Norte 0 -- -- 32
2017-11-20 12:00:00 11.8 3 Norte 5 Norte 0 -- -- 30
2017-11-20 11:00:00 6.5 3 Sur 5 Sudoeste 0 -- -- 42
2017-11-20 10:00:00 2.3 3 Sudoeste 4 Sudoeste 0 -- -- 53
2017-11-20 09:00:00 0.5 2 Sudoeste 6 Sudoeste 0 -- -- 61
2017-11-20 08:00:00 0.8 2 Sudoeste 6 Sudoeste 0 -- -- 70
2017-11-20 07:00:00 1.1 2 Sudoeste 5 Sudoeste 0 -- -- 71
2017-11-20 06:00:00 1.8 3 Sur 5 Sudoeste 0 -- -- 75
2017-11-20 05:00:00 1.6 0 Calma 7 Sudoeste 0 -- -- 77
2017-11-20 04:00:00 2 4 Sur 6 Sudoeste 0 -- -- 76
2017-11-20 03:00:00 2 2 Sudoeste 6 Sudoeste 0 -- -- 80
2017-11-20 02:00:00 2.2 3 Sudoeste 4 Sur 0 -- -- 81
2017-11-20 01:00:00 2.5 2 Sudoeste 7 Sudoeste 0 -- -- 80
2017-11-20 00:00:00 2.5 3 Sur 6 Sudoeste 0 -- -- 82
2017-11-19 23:00:00 3.2 2 Sudoeste 4 Sudoeste 0 -- -- 77
2017-11-19 22:00:00 4 2 Sudoeste 6 Sudoeste 0 -- -- 76
2017-11-19 21:00:00 5.1 3 Sudoeste 7 Oeste 0 -- -- 71
2017-11-19 20:00:00 6.9 3 Sudoeste 9 Sur 0 -- -- 65
2017-11-19 19:00:00 9.1 5 Sur 13 Sur 0 -- -- 54
2017-11-19 18:00:00 13.1 2 Sur 8 Noroeste 0 -- -- 44
2017-11-19 17:00:00 15.9 2 Noroeste 9 Norte 0 -- -- 35
2017-11-19 16:00:00 17.1 3 Norte 8 Noroeste 0 -- -- 28
2017-11-19 15:00:00 16.6 4 Nordeste 11 Nordeste 0 -- -- 24
2017-11-19 14:00:00 14.8 4 Nordeste 10 Norte 0 -- -- 41
2017-11-19 13:00:00 12.4 8 Norte 13 Norte 0 -- -- 46
2017-11-19 12:00:00 11 0 Calma 4 Sur 0 -- -- 53
2017-11-19 11:00:00 5.9 0 Calma 4 Sudoeste 0 -- -- 61
2017-11-19 10:00:00 2.3 0 Calma 4 Sudoeste 0 -- -- 76
2017-11-19 09:00:00 0 3 Sudoeste 8 Sudoeste 0 -- -- 81
2017-11-19 08:00:00 -0.1 3 Sudoeste 6 Sudoeste 0 -- -- 84
2017-11-19 07:00:00 0.4 2 Sudoeste 8 Sudoeste 0 -- -- 88
2017-11-19 06:00:00 0.8 3 Sudoeste 5 Sudoeste 0 -- -- 88
2017-11-19 05:00:00 1.2 3 Sudoeste 5 Sudoeste 0 -- -- 89
2017-11-19 04:00:00 1.6 2 Sudoeste 6 Sudoeste 0 -- -- 90
2017-11-19 03:00:00 1.9 5 Sudoeste 7 Sudoeste 0 -- -- 91
2017-11-19 02:00:00 2.3 2 Sur 5 Sudoeste 0 -- -- 90
2017-11-19 01:00:00 2.3 3 Sudoeste 7 Sudoeste 0 -- -- 90
2017-11-19 00:00:00 2.9 2 Sudoeste 6 Sur 0 -- -- 89
2017-11-18 23:00:00 3.4 2 Sur 6 Sudoeste 0 -- -- 88
2017-11-18 22:00:00 4.1 3 Sur 4 Sur 0 -- -- 81
2017-11-18 21:00:00 5.4 2 Sudoeste 6 Sudoeste 0 -- -- 77
2017-11-18 20:00:00 6.9 3 Sudoeste 8 Sur 0 -- -- 70
2017-11-18 19:00:00 9.1 5 Sur 12 Sur 0 -- -- 61
2017-11-18 18:00:00 12.4 2 Sur 5 Norte 0 -- -- 52
2017-11-18 17:00:00 14.8 3 Norte 11 Norte 0 -- -- 44
2017-11-18 16:00:00 15.9 5 Norte 12 Nordeste 0 -- -- 40
2017-11-18 15:00:00 15.8 4 Nordeste 11 Norte 0 -- -- 44
2017-11-18 14:00:00 14.5 6 Norte 10 Norte 0 -- -- 49
2017-11-18 13:00:00 12.9 4 Nordeste 8 Norte 0 -- -- 53
2017-11-18 12:00:00 9.7 6 Nordeste 10 Norte 0 -- -- 64
2017-11-18 11:00:00 6.8 0 Calma 4 Sudoeste 0 -- -- 77
2017-11-18 10:00:00 3.3 0 Calma 3 Sur 0 -- -- 88
2017-11-18 09:00:00 1.6 2 Sur 5 Norte 0 -- -- 91
2017-11-18 08:00:00 1.6 0 Calma 7 Sudoeste 0 -- -- 91
2017-11-18 07:00:00 2.2 0 Calma 3 Este 0 -- -- 89
2017-11-18 06:00:00 2.2 0 Calma 4 Oeste 0 -- -- 89
2017-11-18 05:00:00 2.1 0 Calma 4 Sudoeste 0 -- -- 89
2017-11-18 04:00:00 2.2 2 Sur -- -- 0 -- -- 90
2017-11-18 03:00:00 2.5 2 Sudoeste 4 Sur 0 -- -- 89
2017-11-18 02:00:00 2.9 2 Sur 5 Oeste 0 -- -- 86
2017-11-18 01:00:00 3.5 3 Sudoeste 4 Sudoeste 0 -- -- 82
2017-11-18 00:00:00 4 3 Sudoeste 5 Oeste 0 -- -- 84
2017-11-17 23:00:00 4.9 3 Sudoeste 6 Sudoeste 0 -- -- 81
2017-11-17 22:00:00 5.6 2 Sudoeste 6 Oeste 0 -- -- 78
2017-11-17 21:00:00 6.7 3 Oeste 6 Sudoeste 0 -- -- 73
2017-11-17 20:00:00 8.1 4 Sur 12 Sur 0 -- -- 67
2017-11-17 19:00:00 10.2 6 Sur 12 Sur 0 -- -- 58
2017-11-17 18:00:00 13.3 2 Sur 10 Nordeste 0 -- -- 49
2017-11-17 17:00:00 15.4 5 Norte 13 Norte 0 -- -- 40
2017-11-17 16:00:00 16.5 5 Norte 10 Nordeste 0 -- -- 39
2017-11-17 15:00:00 16.5 4 Norte 8 Norte 0 -- -- 39
2017-11-17 14:00:00 15.2 3 Noroeste 9 Nordeste 0 -- -- 40
2017-11-17 13:00:00 12.8 7 Norte 11 Norte 0 -- -- 49
2017-11-17 12:00:00 10.2 9 Norte 12 Norte 0 -- -- 57
2017-11-17 11:00:00 7.4 0 Calma 5 Sudoeste 0 -- -- 71
2017-11-17 10:00:00 3.6 3 Sudoeste 5 Sudoeste 0 -- -- 78
2017-11-17 09:00:00 1.9 2 Sudoeste 4 Sudoeste 0 -- -- 84
2017-11-17 08:00:00 2.1 3 Sur 4 Sur 0 -- -- 84
2017-11-17 07:00:00 2.3 2 Sudoeste 4 Sudoeste 0 -- -- 83
2017-11-17 06:00:00 2.6 0 Calma 4 Sudoeste 0 -- -- 83
2017-11-17 05:00:00 2.4 3 Sudoeste 5 Sudoeste 0 -- -- 88
2017-11-17 04:00:00 2.8 2 Sudoeste 6 Sudoeste 0 -- -- 87
2017-11-17 03:00:00 2.9 2 Sur 4 Sur 0 -- -- 87
2017-11-17 02:00:00 3.1 0 Calma 6 Sur 0 -- -- 87
2017-11-17 01:00:00 3.1 4 Oeste 10 Sudoeste 0 -- -- 89
2017-11-17 00:00:00 3.7 2 Sur 5 Sudoeste 0 -- -- 88
2017-11-16 23:00:00 4.1 3 Sudoeste 8 Sudoeste 0 -- -- 87
2017-11-16 22:00:00 5 3 Sudoeste 5 Sudoeste 0 -- -- 84
2017-11-16 21:00:00 6.1 2 Sur 4 Sudoeste 0 -- -- 76
2017-11-16 20:00:00 7.7 0 Calma 10 Sur 0 -- -- 70
2017-11-16 19:00:00 10 7 Sur 13 Sudoeste 0 -- -- 60
2017-11-16 18:00:00 13.3 2 Sur 6 Nordeste 0 -- -- 50
2017-11-16 17:00:00 15.5 3 Norte 12 Nordeste 0 -- -- 41
2017-11-16 16:00:00 16.9 5 Nordeste 13 Norte 0 -- -- 36
2017-11-16 15:00:00 17 5 Nordeste 10 Norte 0 -- -- 37
2017-11-16 14:00:00 15.9 5 Norte 8 Norte 0 -- -- 43
2017-11-16 13:00:00 14.7 4 Norte 6 Norte 0 -- -- 43
2017-11-16 12:00:00 11.8 0 Calma 4 Sudeste 0 -- -- 54
2017-11-16 11:00:00 7 2 Sudoeste 7 Sudoeste 0 -- -- 67
2017-11-16 10:00:00 3.6 2 Sudoeste 6 Sudoeste 0 -- -- 80
2017-11-16 09:00:00 1.6 3 Sur 9 Sudoeste 0 -- -- 84
2017-11-16 08:00:00 1.3 4 Sudoeste 6 Oeste 0 -- -- 87
2017-11-16 07:00:00 1.9 2 Sur 5 Sudoeste 0 -- -- 87
2017-11-16 06:00:00 2.2 3 Sur 4 Sur 0 -- -- 85
2017-11-16 05:00:00 2.2 3 Sudoeste 4 Sudoeste 0 -- -- 89
2017-11-16 04:00:00 2.6 3 Sur 5 Sur 0 -- -- 86
2017-11-16 03:00:00 2.8 2 Sur 5 Sudoeste 0 -- -- 87
2017-11-16 02:00:00 2.5 2 Sur 4 Sudeste 0 -- -- 89
2017-11-16 01:00:00 2.9 2 Sur 5 Sudoeste 0 -- -- 90
2017-11-16 00:00:00 2.9 3 Sudoeste 4 Sudoeste 0 -- -- 91
2017-11-15 23:00:00 3.7 2 Sur 4 Sudoeste 0 -- -- 87
2017-11-15 22:00:00 4.3 4 Sudoeste 7 Sudoeste 0 -- -- 83
2017-11-15 21:00:00 5.7 2 Sur 5 Sudoeste 0 -- -- 78
2017-11-15 20:00:00 7.5 3 Sur 8 Sur 0 -- -- 71
2017-11-15 19:00:00 9.5 7 Sur 12 Sur 0 -- -- 64
2017-11-15 18:00:00 12.8 2 Sur 4 Sudoeste 0 -- -- 52
2017-11-15 17:00:00 15.2 2 Norte 10 Noroeste 0 -- -- 47
2017-11-15 16:00:00 16.3 5 Norte 12 Nordeste 0 -- -- 42
2017-11-15 15:00:00 16.4 5 Norte 11 Nordeste 0 -- -- 43
2017-11-15 14:00:00 15.4 5 Nordeste 12 Norte 0 -- -- 46
2017-11-15 13:00:00 13.6 7 Norte 10 Norte 0 -- -- 53
2017-11-15 12:00:00 11.3 5 Nordeste 8 Nordeste 0 -- -- 62
2017-11-15 11:00:00 7 2 Sur 4 Sur 0 -- -- 80
2017-11-15 10:00:00 3.3 0 Calma 4 Sur 0 -- -- 91
2017-11-15 09:00:00 1.8 2 Sur 6 Sur 0 -- -- 96
2017-11-15 08:00:00 1.6 2 Oeste 6 Oeste 0 -- -- 96
2017-11-15 07:00:00 1.9 3 Sur 5 Sur 0 -- -- 95
2017-11-15 06:00:00 1.8 2 Sudoeste 6 Sudoeste 0 -- -- 95
2017-11-15 05:00:00 1.9 3 Sur 4 Sur 0 -- -- 97
2017-11-15 04:00:00 2 0 Calma 5 Oeste 0 -- -- 95
2017-11-15 03:00:00 2.2 4 Sur 5 Sur 0 -- -- 95
2017-11-15 02:00:00 2.3 2 Sudoeste 4 Sudoeste 0 -- -- 95
2017-11-15 01:00:00 2.6 2 Sudoeste 6 Sur 0 -- -- 95
2017-11-15 00:00:00 3 0 Calma 6 Sur 0 -- -- 92